Map

Track Data

SID SEASON NUMBER BASIN SUBBASIN NAME ISO_TIME NATURE LAT LON WMO_WIND WMO_PRES WMO_AGENCY TRACK_TYPE DIST2LAND LANDFALL IFLAG USA_AGENCY USA_ATCF_ID USA_LAT USA_LON USA_RECORD USA_STATUS USA_WIND USA_PRES USA_SSHS USA_R34_NE USA_R34_SE USA_R34_SW USA_R34_NW USA_R50_NE USA_R50_SE USA_R50_SW USA_R50_NW USA_R64_NE USA_R64_SE USA_R64_SW USA_R64_NW USA_POCI USA_ROCI USA_RMW USA_EYE TOKYO_LAT TOKYO_LON TOKYO_GRADE TOKYO_WIND TOKYO_PRES TOKYO_R50_DIR TOKYO_R50_LONG TOKYO_R50_SHORT TOKYO_R30_DIR TOKYO_R30_LONG TOKYO_R30_SHORT TOKYO_LAND CMA_LAT CMA_LON CMA_CAT CMA_WIND CMA_PRES HKO_LAT HKO_LON HKO_CAT HKO_WIND HKO_PRES NEWDELHI_LAT NEWDELHI_LON NEWDELHI_GRADE NEWDELHI_WIND NEWDELHI_PRES NEWDELHI_CI NEWDELHI_DP NEWDELHI_POCI REUNION_LAT REUNION_LON REUNION_TYPE REUNION_WIND REUNION_PRES REUNION_TNUM REUNION_CI REUNION_RMW REUNION_R34_NE REUNION_R34_SE REUNION_R34_SW REUNION_R34_NW REUNION_R50_NE REUNION_R50_SE REUNION_R50_SW REUNION_R50_NW REUNION_R64_NE REUNION_R64_SE REUNION_R64_SW REUNION_R64_NW BOM_LAT BOM_LON BOM_TYPE BOM_WIND BOM_PRES BOM_TNUM BOM_CI BOM_RMW BOM_R34_NE BOM_R34_SE BOM_R34_SW BOM_R34_NW BOM_R50_NE BOM_R50_SE BOM_R50_SW BOM_R50_NW BOM_R64_NE BOM_R64_SE BOM_R64_SW BOM_R64_NW BOM_ROCI BOM_POCI BOM_EYE BOM_POS_METHOD BOM_PRES_METHOD NADI_LAT NADI_LON NADI_CAT NADI_WIND NADI_PRES WELLINGTON_LAT WELLINGTON_LON WELLINGTON_WIND WELLINGTON_PRES DS824_LAT DS824_LON DS824_STAGE DS824_WIND DS824_PRES TD9636_LAT TD9636_LON TD9636_STAGE TD9636_WIND TD9636_PRES TD9635_LAT TD9635_LON TD9635_WIND TD9635_PRES TD9635_ROCI NEUMANN_LAT NEUMANN_LON NEUMANN_CLASS NEUMANN_WIND NEUMANN_PRES MLC_LAT MLC_LON MLC_CLASS MLC_WIND MLC_PRES USA_GUST BOM_GUST BOM_GUST_PER REUNION_GUST REUNION_GUST_PER USA_SEAHGT USA_SEARAD_NE USA_SEARAD_SE USA_SEARAD_SW USA_SEARAD_NW STORM_SPEED STORM_DIR
1882269N16092 1882 34 NI BB NOT_NAMED 1882-09-26 00:00:00 TS 16.1000 91.5000 main 288 288 _________O____ -1 16.1000 91.5000 TC 45 3 294
1882269N16092 1882 34 NI BB NOT_NAMED 1882-09-26 03:00:00 TS 16.1600 91.3584 main 300 300 _________PO___ -1 16.1901 91.2875 TC 45 16.1000 91.5000 3 3 300
1882269N16092 1882 34 NI BB NOT_NAMED 1882-09-26 06:00:00 TS 16.2688 91.1913 main 322 322 _________OP___ -1 16.3000 91.1000 TC 45 16.2220 91.3283 3 4 308
1882269N16092 1882 34 NI BB NOT_NAMED 1882-09-26 09:00:00 TS 16.4007 91.0379 main 344 344 _________PP___ -1 16.4425 90.9500 TC 45 16.3451 91.1552 3 4 313
1882269N16092 1882 34 NI BB NOT_NAMED 1882-09-26 12:00:00 TS 16.5354 90.8898 main 356 356 _________OP___ -1 16.6000 90.8000 TC 45 16.4707 90.9795 3 4 310
1882269N16092 1882 34 NI BB NOT_NAMED 1882-09-26 15:00:00 TS 16.6750 90.7038 main 381 381 _________PO___ -1 16.7500 90.6075 TC 45 16.6000 90.8000 3 5 308
1882269N16092 1882 34 NI BB NOT_NAMED 1882-09-26 18:00:00 TS 16.8173 90.5076 main 404 404 _________OP___ -1 16.9000 90.4000 TC 45 16.7346 90.6152 3 5 307
1882269N16092 1882 34 NI BB NOT_NAMED 1882-09-26 21:00:00 TS 16.9599 90.3148 main 423 423 _________PP___ -1 17.0425 90.2074 TC 45 16.8774 90.4223 3 5 308
1882269N16092 1882 34 NI BB NOT_NAMED 1882-09-27 00:00:00 TS 17.1157 90.1091 main 435 430 _________OP___ -1 17.2000 90.0000 TC 45 17.0315 90.2182 3 5 309
1882269N16092 1882 34 NI BB NOT_NAMED 1882-09-27 03:00:00 TS 17.2962 89.8788 main 444 437 _________PO___ -1 17.3925 89.7575 TC 45 17.2000 90.0000 3 6 310
1882269N16092 1882 34 NI BB NOT_NAMED 1882-09-27 06:00:00 TS 17.4928 89.6322 main 437 406 _________OP___ -1 17.6000 89.5000 TC 45 17.3856 89.7644 3 6 310
1882269N16092 1882 34 NI BB NOT_NAMED 1882-09-27 09:00:00 TS 17.6925 89.3825 main 406 368 _________PP___ -1 17.8000 89.2499 TC 45 17.5850 89.5150 3 6 310
1882269N16092 1882 34 NI BB NOT_NAMED 1882-09-27 12:00:00 TS 17.8959 89.1290 main 368 337 _________OP___ -1 18.0000 89.0000 TC 45 17.7919 89.2581 3 6 310
1882269N16092 1882 34 NI BB NOT_NAMED 1882-09-27 15:00:00 TS 18.1000 88.8750 main 337 299 _________PO___ -1 18.2000 88.7499 TC 45 18.0000 89.0000 3 6 309
1882269N16092 1882 34 NI BB NOT_NAMED 1882-09-27 18:00:00 TS 18.2878 88.6208 main 299 268 _________OP___ -1 18.4000 88.5000 TC 45 18.1756 88.7415 3 6 307
1882269N16092 1882 34 NI BB NOT_NAMED 1882-09-27 21:00:00 TS 18.4662 88.3634 main 268 230 _________PP___ -1 18.5775 88.2424 TC 45 18.3550 88.4845 3 6 309
1882269N16092 1882 34 NI BB NOT_NAMED 1882-09-28 00:00:00 TS 18.6784 88.1176 main 230 199 _________OP___ -1 18.8000 88.0000 TC 45 18.5569 88.2353 3 7 318
1882269N16092 1882 34 NI BB NOT_NAMED 1882-09-28 03:00:00 TS 18.9637 87.8962 main 192 153 _________PO___ -1 19.1275 87.7925 TC 41 18.8000 88.0000 3 7 328
1882269N16092 1882 34 NI BB NOT_NAMED 1882-09-28 06:00:00 TS 19.3072 87.7108 main 153 122 _________OP___ -1 19.5000 87.6000 TC 37 19.1145 87.8216 3 8 334
1882269N16092 1882 34 NI BB NOT_NAMED 1882-09-28 09:00:00 TS 19.6595 87.5406 main 107 71 _________PP___ -1 19.8498 87.4297 TC 33 19.4692 87.6516 3 8 333
1882269N16092 1882 34 NI BB NOT_NAMED 1882-09-28 12:00:00 TS 20.0197 87.3279 main 71 23 _________OP___ -1 20.2000 87.2000 TC 30 19.8394 87.4558 3 9 326
1882269N16092 1882 34 NI BB NOT_NAMED 1882-09-28 15:00:00 TS 20.3825 87.0188 main 23 0 _________PO___ -1 20.5650 86.8376 TC 30 20.2000 87.2000 1 10 316
1882269N16092 1882 34 NI BB NOT_NAMED 1882-09-28 18:00:00 TS 20.7155 86.6200 main 0 0 _________OP___ -1 20.9000 86.4000 TC 30 20.5309 86.8400 1 10 309
1882269N16092 1882 34 NI BB NOT_NAMED 1882-09-28 21:00:00 TS 21.0089 86.1839 main 0 0 _________PP___ -1 21.1725 85.9499 TC 30 20.8454 86.4180 1 10 304
1882269N16092 1882 34 NI BB NOT_NAMED 1882-09-29 00:00:00 TS 21.2685 85.7309 main 0 0 _________OP___ -1 21.4000 85.5000 TC 30 21.1371 85.9618 1 10 301
1882269N16092 1882 34 NI BB NOT_NAMED 1882-09-29 03:00:00 TS 21.5036 85.2999 main 0 0 _________PO___ -1 21.6073 85.0998 TC 30 21.4000 85.5000 1 9 300
1882269N16092 1882 34 NI BB NOT_NAMED 1882-09-29 06:00:00 TS 21.7162 84.8892 main 0 0 _________OP___ -1 21.8000 84.7000 TC 30 21.6324 85.0784 1 9 298
1882269N16092 1882 34 NI BB NOT_NAMED 1882-09-29 09:00:00 TS 21.9222 84.4570 main 0 0 _________PP___ -1 22.0074 84.2575 TC 30 21.8369 84.6566 1 9 296
1882269N16092 1882 34 NI BB NOT_NAMED 1882-09-29 12:00:00 TS 22.1115 84.0158 main 0 0 _________OP___ -1 22.2000 83.8000 TC 30 22.0230 84.2316 1 9 293
1882269N16092 1882 34 NI BB NOT_NAMED 1882-09-29 15:00:00 TS 22.2749 83.5749 main 0 0 _________PO___ -1 22.3499 83.3498 TC 30 22.2000 83.8000 1 9 292
1882269N16092 1882 34 NI BB NOT_NAMED 1882-09-29 18:00:00 TS 22.4454 83.1043 main 0 0 _________OP___ -1 22.5000 82.9000 TC 30 22.3908 83.3086 1 10 292
1882269N16092 1882 34 NI BB NOT_NAMED 1882-09-29 21:00:00 TS 22.6404 82.6153 main 0 0 _________PP___ -1 22.7076 82.4127 TC 30 22.5733 82.8179 1 9 294
1882269N16092 1882 34 NI BB NOT_NAMED 1882-09-30 00:00:00 TS 22.8220 82.1841 main 0 0 _________OP___ -1 22.9000 82.0000 TC 30 22.7440 82.3681 1 8 295
1882269N16092 1882 34 NI BB NOT_NAMED 1882-09-30 03:00:00 TS 22.9537 81.8736 main 0 0 _________PO___ -1 23.0073 81.7473 TC 30 22.9000 82.0000 1 5 297
1882269N16092 1882 34 NI BB NOT_NAMED 1882-09-30 06:00:00 TS 23.0653 81.6714 main 0 0 _________OP___ -1 23.1000 81.6000 TC 30 23.0305 81.7429 1 4 307
1882269N16092 1882 34 NI BB NOT_NAMED 1882-09-30 09:00:00 TS 23.1921 81.5247 main 0 0 _________PP___ -1 23.2350 81.4775 TC 30 23.1492 81.5719 1 3 321
1882269N16092 1882 34 NI BB NOT_NAMED 1882-09-30 12:00:00 TS 23.3341 81.4325 main 0 0 _________OP___ -1 23.4000 81.4000 TC 30 23.2683 81.4650 1 3 335
1882269N16092 1882 34 NI BB NOT_NAMED 1882-09-30 15:00:00 TS 23.5000 81.3675 main 0 0 _________PO___ -1 23.6000 81.3350 TC 30 23.4000 81.4000 1 4 344
1882269N16092 1882 34 NI BB NOT_NAMED 1882-09-30 18:00:00 TS 23.6945 81.3174 main 0 0 _________OP___ -1 23.8000 81.3000 TC 30 23.5890 81.3349 1 4 350
1882269N16092 1882 34 NI BB NOT_NAMED 1882-09-30 21:00:00 TS 23.8837 81.2986 main 0 0 _________PP___ -1 23.9800 81.2925 TC 30 23.7874 81.3048 1 3 0
1882269N16092 1882 34 NI BB NOT_NAMED 1882-10-01 00:00:00 TS 24.0336 81.2987 main 0 0 _________OP___ -1 24.1000 81.3000 TC 30 23.9671 81.2974 1 2 0
1882269N16092 1882 34 NI BB NOT_NAMED 1882-10-01 03:00:00 TS 24.1112 81.3000 main 0 0 _________PO___ -1 24.1225 81.3000 TC 30 24.1000 81.3000 1 1 0
1882269N16092 1882 34 NI BB NOT_NAMED 1882-10-01 06:00:00 TS 24.1252 81.2964 main 0 0 _________OP___ -1 24.1000 81.3000 TC 30 24.1503 81.2928 1 0 0
1882269N16092 1882 34 NI BB NOT_NAMED 1882-10-01 09:00:00 TS 24.1262 81.2962 main 0 0 _________PP___ -1 24.1000 81.3000 TC 30 24.1525 81.2925 1 0 0
1882269N16092 1882 34 NI BB NOT_NAMED 1882-10-01 12:00:00 TS 24.1142 81.2980 main 0 0 _________OP___ -1 24.1000 81.3000 TC 30 24.1284 81.2959 1 0 0
1882269N16092 1882 34 NI BB NOT_NAMED 1882-10-01 15:00:00 TS 24.1000 81.3000 main 0 0 _________PO___ -1 24.1000 81.3000 TC 30 24.1000 81.3000 1 0 0
1882269N16092 1882 34 NI BB NOT_NAMED 1882-10-01 18:00:00 TS 24.0898 81.2858 main 0 0 _________OP___ -1 24.1000 81.3000 TC 30 24.0796 81.2717 1 0 228
1882269N16092 1882 34 NI BB NOT_NAMED 1882-10-01 21:00:00 TS 24.0737 81.2626 main 0 0 _________PP___ -1 24.0850 81.2775 TC 30 24.0624 81.2477 1 0 0
1882269N16092 1882 34 NI BB NOT_NAMED 1882-10-02 00:00:00 TS 24.0820 81.2749 main 0 0 _________OP___ -1 24.1000 81.3000 TC 30 24.0639 81.2499 1 1 54
1882269N16092 1882 34 NI BB NOT_NAMED 1882-10-02 03:00:00 TS 24.1388 81.3600 main 0 0 _________PO___ -1 24.1775 81.4200 TC 30 24.1000 81.3000 1 3 52
1882269N16092 1882 34 NI BB NOT_NAMED 1882-10-02 06:00:00 TS 24.2486 81.5082 main 0 0 _________OP___ -1 24.3000 81.6000 TC 30 24.1972 81.4164 1 4 50
1882269N16092 1882 34 NI BB NOT_NAMED 1882-10-02 09:00:00 TS 24.3888 81.6873 main 0 0 _________PP___ -1 24.4500 81.7925 TC 30 24.3275 81.5822 1 5 51
1882269N16092 1882 34 NI BB NOT_NAMED 1882-10-02 12:00:00 TS 24.5345 81.8910 main 0 0 _________OP___ -1 24.6000 82.0000 TC 30 24.4691 81.7820 1 5 54
1882269N16092 1882 34 NI BB NOT_NAMED 1882-10-02 15:00:00 TS 24.6575 82.0963 main 0 0 _________PO___ -1 24.7149 82.1925 TC 30 24.6000 82.0000 1 4 60
1882269N16092 1882 34 NI BB NOT_NAMED 1882-10-02 18:00:00 TS 24.7449 82.2988 main 0 0 _________OP___ -1 24.8000 82.4000 TC 30 24.7035 82.2229 1 4 68
1882269N16092 1882 34 NI BB NOT_NAMED 1882-10-02 21:00:00 TS 24.8127 82.5246 main 0 0 _________PP___ -1 24.8576 82.6400 TC 30 24.7827 82.4476 1 4 74
1882269N16092 1882 34 NI BB NOT_NAMED 1882-10-03 00:00:00 TS 24.8637 82.7490 main 0 0 _________OP___ -1 24.9000 82.9000 TC 30 24.8455 82.6735 1 4 76
1882269N16092 1882 34 NI BB NOT_NAMED 1882-10-03 03:00:00 NR 24.9000 82.9000 main 0 __________O___ -1 TC 24.9000 82.9000 1 3 75

About IBTrACS Database

This database is a web-friendly format of International Best Track Archive for Climate Stewardship (IBTrACS), a global best track data archive curated by NOAA dating back to 1842.

Updated: 2021-10-08